Oro Valley, AZ (85755)

6:07 AM MST on September 02, 2015 (GMT -0700)
Rancho Vistoso | | Change Station
CLOSE
Current Station
Personal Weather Station
Location: Oro Valley, AZ
Elevation: 2792 ft
Nearby Weather Stations

Elev 2792 ft 32.43 °N, 110.97 °W | Updated 4 seconds ago

Partly Cloudy
Partly Cloudy
74.9 °F
Feels Like 76 °F
N
0.0
Wind Variable Wind from NNE
Gusts 2.0 mph

Today
High -- | Low -- °F
--% Chance of Precip.
Yesterday
High -- | Low -- °F
Precip. -- in
5:59 AM 6:47 PM
Waning Gibbous, 80% visible
Pressure 29.90 in
Visibility 10.0 miles
Clouds Scattered Clouds 19000 ft
Heat Index 76 °F
Dew Point 66 °F
Humidity 74%
Rainfall 0.00 in
Snow Depth Not available.
UV 0 out of 12
Pollen 5.20 out of 12
Air Quality Not available.
Flu Activity Not available.
METAR KDMA 021258Z AUTO 10003KT 10SM SCT190 25/19 A3003 RMK AO2 SLP125 T02510188 $
Pressure 29.90 in
Visibility 10.0 miles
Clouds Scattered Clouds 19000 ft
Heat Index 76 °F
Dew Point 66 °F
Humidity 74%
Rainfall 0.00 in
Snow Depth Not available.
UV 0 out of 12
Pollen 5.20 out of 12
Air Quality Not available.
Flu Activity Not available.
METAR KDMA 021258Z AUTO 10003KT 10SM SCT190 25/19 A3003 RMK AO2 SLP125 T02510188 $

10-Day Weather Forecast

×

Almanac

Astronomy

Sep. 02, 2015 Rise Set
Actual Time
Civil Twilight
Nautical Twilight
Astronomical Twilight
Moon
Length of Visible Light
Length of Day
Tomorrow will be .
, % of the Moon is Illuminated

Today's Extremes

State Highs State Lows

Community

WunderPhotos

Upload Photos

1,851,747 photos uploaded!

WunderBlogs® & News

Nearby

Air Quality

  Air Quality AQ Index Pollutant
Not available.

Snow Depth

Station Depth Elevation

Earthquake Activity

City Distance Mag. Time & Date
Minimum magnitude displayed is 2.5.

Coastal Water Temperatures

Place Temperature

Stations

Nearby Weather Stations

Station Location Temp. Windchill Dew Point Humidity Wind Precip. Elev Updated Type